首页
METAR-TAF:

METAR-TAF

机场 :

呼和浩特白塔国际机场

呼和浩特, 中华人民共和国

纬度: 40-49N, 经度: 111-41E, 海拔: 1065米

当前天气观测

该预报发布于52分钟前的07:00 UTC
风速4节,风向多变
温度 30°C
湿度 15%
气压 1010 hPa
能见度10公里或以上
1500米以下无云,无积雨云

METAR: ZBHH 160700Z VRB02MPS CAVOK 30/01 Q1010 NOSIG

时间: 15:52 (07:52 UTC)

预报

该预报发布于4小时和49分钟前的03:03 UTC
预报有效从16日的 06点(UTC)到 17日的 06点(UTC)
风速8节,风向西南
能见度10公里或以上
1500米以下无云,无积雨云

TAF: ZBHH 160303Z 1606/1706 23004MPS CAVOK TX30/1607Z TN12/1622Z

超过4000个机场的气象观测和天气预报(METAR&TAF报告)。

可查询的气象台以黄色和红色小点在地图上表示。

将鼠标移到小点上方,可查看气象台名称。

然后点击查看天气观测和预报。

如需切换地图:点击带黑十字的绿色按钮放大地图;点击带横线的绿色按钮缩小地图;或者点击绿色箭头查看邻近地区的地图。


METAR-TAF: